sensor_id;sensor_type;location;lat;lon;timestamp;temperature;humidity
49829;DHT22;35723;51.194;5.112;2023-07-29T00:01:50;21.60;99.90
49829;DHT22;35723;51.194;5.112;2023-07-29T00:04:16;21.50;99.90
49829;DHT22;35723;51.194;5.112;2023-07-29T00:06:42;21.60;99.90
49829;DHT22;35723;51.194;5.112;2023-07-29T00:09:08;21.60;99.90
49829;DHT22;35723;51.194;5.112;2023-07-29T00:11:33;21.60;99.90
49829;DHT22;35723;51.194;5.112;2023-07-29T00:14:01;21.60;99.90
49829;DHT22;35723;51.194;5.112;2023-07-29T00:16:27;21.60;99.90
49829;DHT22;35723;51.194;5.112;2023-07-29T00:18:53;21.60;99.90
49829;DHT22;35723;51.194;5.112;2023-07-29T00:21:18;21.60;99.90
49829;DHT22;35723;51.194;5.112;2023-07-29T00:23:45;21.60;99.90
49829;DHT22;35723;51.194;5.112;2023-07-29T00:26:10;21.60;99.90
49829;DHT22;35723;51.194;5.112;2023-07-29T00:28:36;21.60;99.90
49829;DHT22;35723;51.194;5.112;2023-07-29T00:31:02;21.60;99.90
49829;DHT22;35723;51.194;5.112;2023-07-29T00:33:28;21.60;99.90
49829;DHT22;35723;51.194;5.112;2023-07-29T00:35:54;21.60;99.90
49829;DHT22;35723;51.194;5.112;2023-07-29T00:38:19;21.60;99.90
49829;DHT22;35723;51.194;5.112;2023-07-29T00:40:45;21.60;99.90
49829;DHT22;35723;51.194;5.112;2023-07-29T00:43:11;21.50;99.90
49829;DHT22;35723;51.194;5.112;2023-07-29T00:45:36;21.60;99.90
49829;DHT22;35723;51.194;5.112;2023-07-29T00:48:03;21.50;99.90
49829;DHT22;35723;51.194;5.112;2023-07-29T00:50:30;21.50;99.90
49829;DHT22;35723;51.194;5.112;2023-07-29T00:52:57;21.50;99.90
49829;DHT22;35723;51.194;5.112;2023-07-29T00:55:23;21.50;99.90
49829;DHT22;35723;51.194;5.112;2023-07-29T00:57:49;21.50;99.90
49829;DHT22;35723;51.194;5.112;2023-07-29T01:00:17;21.60;99.90
49829;DHT22;35723;51.194;5.112;2023-07-29T01:02:43;21.50;99.90
49829;DHT22;35723;51.194;5.112;2023-07-29T01:05:12;21.40;99.90
49829;DHT22;35723;51.194;5.112;2023-07-29T01:07:59;21.40;99.90
49829;DHT22;35723;51.194;5.112;2023-07-29T01:16:05;21.40;99.90
49829;DHT22;35723;51.194;5.112;2023-07-29T01:18:36;21.40;99.90
49829;DHT22;35723;51.194;5.112;2023-07-29T01:21:04;21.40;99.90
49829;DHT22;35723;51.194;5.112;2023-07-29T01:23:34;21.30;99.90
49829;DHT22;35723;51.194;5.112;2023-07-29T01:26:00;21.40;99.90
49829;DHT22;35723;51.194;5.112;2023-07-29T01:28:27;21.30;99.90
49829;DHT22;35723;51.194;5.112;2023-07-29T01:31:01;21.30;99.90
49829;DHT22;35723;51.194;5.112;2023-07-29T01:33:33;21.30;99.90
49829;DHT22;35723;51.194;5.112;2023-07-29T01:36:21;21.20;99.90
49829;DHT22;35723;51.194;5.112;2023-07-29T01:38:49;21.20;99.90
49829;DHT22;35723;51.194;5.112;2023-07-29T01:41:17;21.20;99.90
49829;DHT22;35723;51.194;5.112;2023-07-29T01:43:45;21.20;99.90
49829;DHT22;35723;51.194;5.112;2023-07-29T01:46:12;21.20;99.90
49829;DHT22;35723;51.194;5.112;2023-07-29T01:48:38;21.20;99.90
49829;DHT22;35723;51.194;5.112;2023-07-29T01:51:04;21.10;99.90
49829;DHT22;35723;51.194;5.112;2023-07-29T01:53:30;21.10;99.90
49829;DHT22;35723;51.194;5.112;2023-07-29T01:55:56;21.10;99.90
49829;DHT22;35723;51.194;5.112;2023-07-29T01:58:23;21.00;99.90
49829;DHT22;35723;51.194;5.112;2023-07-29T02:00:48;21.00;99.90
49829;DHT22;35723;51.194;5.112;2023-07-29T02:03:14;20.90;99.90
49829;DHT22;35723;51.194;5.112;2023-07-29T02:05:40;21.00;99.90
49829;DHT22;35723;51.194;5.112;2023-07-29T02:08:05;21.00;99.90
49829;DHT22;35723;51.194;5.112;2023-07-29T02:10:31;20.90;99.90
49829;DHT22;35723;51.194;5.112;2023-07-29T02:12:57;20.80;99.90
49829;DHT22;35723;51.194;5.112;2023-07-29T02:15:23;20.80;99.90
49829;DHT22;35723;51.194;5.112;2023-07-29T02:17:50;20.80;99.90
49829;DHT22;35723;51.194;5.112;2023-07-29T02:20:17;20.80;99.90
49829;DHT22;35723;51.194;5.112;2023-07-29T02:22:43;20.70;99.90
49829;DHT22;35723;51.194;5.112;2023-07-29T02:25:08;20.70;99.90
49829;DHT22;35723;51.194;5.112;2023-07-29T02:27:35;20.60;99.90
49829;DHT22;35723;51.194;5.112;2023-07-29T02:30:01;20.60;99.90
49829;DHT22;35723;51.194;5.112;2023-07-29T02:32:27;20.50;99.90
49829;DHT22;35723;51.194;5.112;2023-07-29T02:34:53;20.50;99.90
49829;DHT22;35723;51.194;5.112;2023-07-29T02:37:18;20.50;99.90
49829;DHT22;35723;51.194;5.112;2023-07-29T02:39:44;20.50;99.90
49829;DHT22;35723;51.194;5.112;2023-07-29T02:42:10;20.50;99.90
49829;DHT22;35723;51.194;5.112;2023-07-29T02:44:36;20.50;99.90
49829;DHT22;35723;51.194;5.112;2023-07-29T02:47:02;20.50;99.90
49829;DHT22;35723;51.194;5.112;2023-07-29T02:49:27;20.50;99.90
49829;DHT22;35723;51.194;5.112;2023-07-29T02:51:53;20.50;99.90
49829;DHT22;35723;51.194;5.112;2023-07-29T02:54:19;20.50;99.90
49829;DHT22;35723;51.194;5.112;2023-07-29T02:56:44;20.50;99.90
49829;DHT22;35723;51.194;5.112;2023-07-29T02:59:10;20.40;99.90
49829;DHT22;35723;51.194;5.112;2023-07-29T03:01:36;20.50;99.90
49829;DHT22;35723;51.194;5.112;2023-07-29T03:04:01;20.50;99.90
49829;DHT22;35723;51.194;5.112;2023-07-29T03:06:27;20.50;99.90
49829;DHT22;35723;51.194;5.112;2023-07-29T03:08:53;20.40;99.90
49829;DHT22;35723;51.194;5.112;2023-07-29T03:11:18;20.40;99.90
49829;DHT22;35723;51.194;5.112;2023-07-29T03:13:44;20.40;99.90
49829;DHT22;35723;51.194;5.112;2023-07-29T03:18:40;20.30;99.90
49829;DHT22;35723;51.194;5.112;2023-07-29T03:21:06;20.30;99.90
49829;DHT22;35723;51.194;5.112;2023-07-29T03:23:32;20.30;99.90
49829;DHT22;35723;51.194;5.112;2023-07-29T03:25:59;20.30;99.90
49829;DHT22;35723;51.194;5.112;2023-07-29T03:28:34;20.30;99.90
49829;DHT22;35723;51.194;5.112;2023-07-29T03:30:59;20.30;99.90
49829;DHT22;35723;51.194;5.112;2023-07-29T03:33:26;20.30;99.90
49829;DHT22;35723;51.194;5.112;2023-07-29T03:35:54;20.30;99.90
49829;DHT22;35723;51.194;5.112;2023-07-29T03:38:20;20.20;99.90
49829;DHT22;35723;51.194;5.112;2023-07-29T03:40:46;20.30;99.90
49829;DHT22;35723;51.194;5.112;2023-07-29T03:43:11;20.20;99.90
49829;DHT22;35723;51.194;5.112;2023-07-29T03:45:37;20.30;99.90
49829;DHT22;35723;51.194;5.112;2023-07-29T03:48:04;20.10;99.90
49829;DHT22;35723;51.194;5.112;2023-07-29T03:50:30;20.20;99.90
49829;DHT22;35723;51.194;5.112;2023-07-29T03:52:56;20.10;99.90
49829;DHT22;35723;51.194;5.112;2023-07-29T03:55:22;20.10;99.90
49829;DHT22;35723;51.194;5.112;2023-07-29T03:57:47;20.00;99.90
49829;DHT22;35723;51.194;5.112;2023-07-29T04:00:13;20.00;99.90
49829;DHT22;35723;51.194;5.112;2023-07-29T04:02:39;20.00;99.90
49829;DHT22;35723;51.194;5.112;2023-07-29T04:05:06;20.10;99.90
49829;DHT22;35723;51.194;5.112;2023-07-29T04:07:34;20.10;99.90
49829;DHT22;35723;51.194;5.112;2023-07-29T04:10:02;20.00;99.90
49829;DHT22;35723;51.194;5.112;2023-07-29T04:12:28;20.00;99.90
49829;DHT22;35723;51.194;5.112;2023-07-29T04:14:53;20.00;99.90
49829;DHT22;35723;51.194;5.112;2023-07-29T04:17:19;19.90;99.90
49829;DHT22;35723;51.194;5.112;2023-07-29T04:19:45;19.90;99.90
49829;DHT22;35723;51.194;5.112;2023-07-29T04:22:10;19.90;99.90
49829;DHT22;35723;51.194;5.112;2023-07-29T04:24:36;19.90;99.90
49829;DHT22;35723;51.194;5.112;2023-07-29T04:27:02;20.00;99.90
49829;DHT22;35723;51.194;5.112;2023-07-29T04:29:28;19.90;99.90
49829;DHT22;35723;51.194;5.112;2023-07-29T04:31:54;20.00;99.90
49829;DHT22;35723;51.194;5.112;2023-07-29T04:34:20;19.90;99.90
49829;DHT22;35723;51.194;5.112;2023-07-29T04:36:46;19.90;99.90
49829;DHT22;35723;51.194;5.112;2023-07-29T04:39:12;19.90;99.90
49829;DHT22;35723;51.194;5.112;2023-07-29T04:41:38;19.90;99.90
49829;DHT22;35723;51.194;5.112;2023-07-29T04:44:04;19.90;99.90
49829;DHT22;35723;51.194;5.112;2023-07-29T04:46:29;19.80;99.90
49829;DHT22;35723;51.194;5.112;2023-07-29T04:48:55;19.90;99.90
49829;DHT22;35723;51.194;5.112;2023-07-29T04:51:21;19.90;99.90
49829;DHT22;35723;51.194;5.112;2023-07-29T04:53:47;19.90;99.90
49829;DHT22;35723;51.194;5.112;2023-07-29T04:56:12;19.90;99.90
49829;DHT22;35723;51.194;5.112;2023-07-29T04:58:38;19.90;99.90
49829;DHT22;35723;51.194;5.112;2023-07-29T05:01:04;19.90;99.90
49829;DHT22;35723;51.194;5.112;2023-07-29T05:03:30;19.90;99.90
49829;DHT22;35723;51.194;5.112;2023-07-29T05:05:56;19.90;99.90
49829;DHT22;35723;51.194;5.112;2023-07-29T05:08:22;19.90;99.90
49829;DHT22;35723;51.194;5.112;2023-07-29T05:10:52;19.90;99.90
49829;DHT22;35723;51.194;5.112;2023-07-29T05:13:18;19.90;99.90
49829;DHT22;35723;51.194;5.112;2023-07-29T05:15:44;20.00;99.90
49829;DHT22;35723;51.194;5.112;2023-07-29T05:18:09;19.90;99.90
49829;DHT22;35723;51.194;5.112;2023-07-29T05:20:35;19.90;99.90
49829;DHT22;35723;51.194;5.112;2023-07-29T05:23:01;20.00;99.90
49829;DHT22;35723;51.194;5.112;2023-07-29T05:25:27;20.00;99.90
49829;DHT22;35723;51.194;5.112;2023-07-29T05:27:52;20.00;99.90
49829;DHT22;35723;51.194;5.112;2023-07-29T05:30:18;20.00;99.90
49829;DHT22;35723;51.194;5.112;2023-07-29T05:32:44;20.00;99.90
49829;DHT22;35723;51.194;5.112;2023-07-29T05:35:10;20.00;99.90
49829;DHT22;35723;51.194;5.112;2023-07-29T05:37:38;20.00;99.90
49829;DHT22;35723;51.194;5.112;2023-07-29T05:40:05;20.00;99.90
49829;DHT22;35723;51.194;5.112;2023-07-29T05:42:32;20.10;99.90
49829;DHT22;35723;51.194;5.112;2023-07-29T05:44:58;20.10;99.90
49829;DHT22;35723;51.194;5.112;2023-07-29T05:47:23;20.10;99.90
49829;DHT22;35723;51.194;5.112;2023-07-29T05:49:49;20.10;99.90
49829;DHT22;35723;51.194;5.112;2023-07-29T05:52:15;20.10;99.90
49829;DHT22;35723;51.194;5.112;2023-07-29T05:54:40;20.00;99.90
49829;DHT22;35723;51.194;5.112;2023-07-29T05:57:12;20.20;99.90
49829;DHT22;35723;51.194;5.112;2023-07-29T05:59:38;20.20;99.90
49829;DHT22;35723;51.194;5.112;2023-07-29T06:02:04;20.20;99.90
49829;DHT22;35723;51.194;5.112;2023-07-29T06:04:30;20.20;99.90
49829;DHT22;35723;51.194;5.112;2023-07-29T06:06:55;20.20;99.90
49829;DHT22;35723;51.194;5.112;2023-07-29T06:09:22;20.30;99.90
49829;DHT22;35723;51.194;5.112;2023-07-29T06:11:48;20.40;99.90
49829;DHT22;35723;51.194;5.112;2023-07-29T06:14:13;20.40;99.90
49829;DHT22;35723;51.194;5.112;2023-07-29T06:16:39;20.40;99.90
49829;DHT22;35723;51.194;5.112;2023-07-29T06:19:05;20.50;99.90
49829;DHT22;35723;51.194;5.112;2023-07-29T06:21:31;20.50;99.90
49829;DHT22;35723;51.194;5.112;2023-07-29T06:23:56;20.50;99.90
49829;DHT22;35723;51.194;5.112;2023-07-29T06:26:22;20.50;99.90
49829;DHT22;35723;51.194;5.112;2023-07-29T06:28:48;20.50;99.90
49829;DHT22;35723;51.194;5.112;2023-07-29T06:31:13;20.50;99.90
49829;DHT22;35723;51.194;5.112;2023-07-29T06:33:40;20.60;99.90
49829;DHT22;35723;51.194;5.112;2023-07-29T06:36:05;20.70;99.90
49829;DHT22;35723;51.194;5.112;2023-07-29T06:38:31;20.70;99.90
49829;DHT22;35723;51.194;5.112;2023-07-29T06:40:57;20.80;99.90
49829;DHT22;35723;51.194;5.112;2023-07-29T06:43:23;20.90;99.90
49829;DHT22;35723;51.194;5.112;2023-07-29T06:45:48;20.90;99.90
49829;DHT22;35723;51.194;5.112;2023-07-29T06:48:14;20.90;99.90
49829;DHT22;35723;51.194;5.112;2023-07-29T06:50:40;20.90;99.90
49829;DHT22;35723;51.194;5.112;2023-07-29T06:53:06;20.90;99.90
49829;DHT22;35723;51.194;5.112;2023-07-29T06:55:32;21.00;99.90
49829;DHT22;35723;51.194;5.112;2023-07-29T06:57:57;21.00;99.90
49829;DHT22;35723;51.194;5.112;2023-07-29T07:00:23;21.10;99.90
49829;DHT22;35723;51.194;5.112;2023-07-29T07:02:48;21.00;99.90
49829;DHT22;35723;51.194;5.112;2023-07-29T07:05:14;21.00;99.90
49829;DHT22;35723;51.194;5.112;2023-07-29T07:07:40;21.10;99.90
49829;DHT22;35723;51.194;5.112;2023-07-29T07:10:06;21.20;99.90
49829;DHT22;35723;51.194;5.112;2023-07-29T07:12:32;21.10;99.90
49829;DHT22;35723;51.194;5.112;2023-07-29T07:14:57;21.00;99.90
49829;DHT22;35723;51.194;5.112;2023-07-29T07:17:23;21.10;99.90
49829;DHT22;35723;51.194;5.112;2023-07-29T07:19:48;21.10;99.90
49829;DHT22;35723;51.194;5.112;2023-07-29T07:22:15;21.10;99.90
49829;DHT22;35723;51.194;5.112;2023-07-29T07:24:41;21.10;99.90
49829;DHT22;35723;51.194;5.112;2023-07-29T07:27:07;21.10;99.90
49829;DHT22;35723;51.194;5.112;2023-07-29T07:29:32;21.10;99.90
49829;DHT22;35723;51.194;5.112;2023-07-29T07:31:58;21.20;99.90
49829;DHT22;35723;51.194;5.112;2023-07-29T07:34:24;21.30;99.90
49829;DHT22;35723;51.194;5.112;2023-07-29T07:36:50;21.20;99.90
49829;DHT22;35723;51.194;5.112;2023-07-29T07:39:16;21.10;99.90
49829;DHT22;35723;51.194;5.112;2023-07-29T07:41:42;21.20;99.90
49829;DHT22;35723;51.194;5.112;2023-07-29T07:44:08;21.20;99.90
49829;DHT22;35723;51.194;5.112;2023-07-29T07:46:34;21.20;99.90
49829;DHT22;35723;51.194;5.112;2023-07-29T07:49:00;21.30;99.90
49829;DHT22;35723;51.194;5.112;2023-07-29T07:51:25;21.40;99.90
49829;DHT22;35723;51.194;5.112;2023-07-29T07:53:51;21.40;99.90
49829;DHT22;35723;51.194;5.112;2023-07-29T07:56:16;21.40;99.90
49829;DHT22;35723;51.194;5.112;2023-07-29T07:58:42;21.40;99.90
49829;DHT22;35723;51.194;5.112;2023-07-29T08:01:08;21.40;99.90
49829;DHT22;35723;51.194;5.112;2023-07-29T08:03:35;21.50;99.90
49829;DHT22;35723;51.194;5.112;2023-07-29T08:06:01;21.60;99.90
49829;DHT22;35723;51.194;5.112;2023-07-29T08:08:27;21.70;99.90
49829;DHT22;35723;51.194;5.112;2023-07-29T08:10:57;21.70;99.90
49829;DHT22;35723;51.194;5.112;2023-07-29T08:13:23;21.70;99.90
49829;DHT22;35723;51.194;5.112;2023-07-29T08:15:50;21.60;99.90
49829;DHT22;35723;51.194;5.112;2023-07-29T08:18:16;21.60;99.90
49829;DHT22;35723;51.194;5.112;2023-07-29T08:20:55;21.60;99.90
49829;DHT22;35723;51.194;5.112;2023-07-29T08:23:24;21.60;99.90
49829;DHT22;35723;51.194;5.112;2023-07-29T08:25:58;21.60;99.90
49829;DHT22;35723;51.194;5.112;2023-07-29T08:28:28;21.60;99.90
49829;DHT22;35723;51.194;5.112;2023-07-29T08:30:54;21.60;99.90
49829;DHT22;35723;51.194;5.112;2023-07-29T08:33:20;21.60;99.90
49829;DHT22;35723;51.194;5.112;2023-07-29T08:35:45;21.60;99.90
49829;DHT22;35723;51.194;5.112;2023-07-29T08:38:11;21.60;99.90
49829;DHT22;35723;51.194;5.112;2023-07-29T08:40:39;21.60;99.90
49829;DHT22;35723;51.194;5.112;2023-07-29T08:43:07;21.70;99.90
49829;DHT22;35723;51.194;5.112;2023-07-29T08:45:35;21.70;99.90
49829;DHT22;35723;51.194;5.112;2023-07-29T08:48:02;21.80;99.90
49829;DHT22;35723;51.194;5.112;2023-07-29T08:50:32;21.80;99.90
49829;DHT22;35723;51.194;5.112;2023-07-29T08:52:59;21.90;99.90
49829;DHT22;35723;51.194;5.112;2023-07-29T08:55:25;21.90;99.90
49829;DHT22;35723;51.194;5.112;2023-07-29T08:57:51;22.00;99.90
49829;DHT22;35723;51.194;5.112;2023-07-29T09:00:17;22.20;99.90
49829;DHT22;35723;51.194;5.112;2023-07-29T09:02:43;22.30;99.90
49829;DHT22;35723;51.194;5.112;2023-07-29T09:05:08;22.40;99.90
49829;DHT22;35723;51.194;5.112;2023-07-29T09:07:36;22.50;99.90
49829;DHT22;35723;51.194;5.112;2023-07-29T09:10:02;22.50;99.90
49829;DHT22;35723;51.194;5.112;2023-07-29T09:12:28;22.60;99.90
49829;DHT22;35723;51.194;5.112;2023-07-29T09:14:54;22.80;99.90
49829;DHT22;35723;51.194;5.112;2023-07-29T09:17:22;22.80;99.90
49829;DHT22;35723;51.194;5.112;2023-07-29T09:19:49;22.90;99.90
49829;DHT22;35723;51.194;5.112;2023-07-29T09:22:19;22.90;99.90
49829;DHT22;35723;51.194;5.112;2023-07-29T09:24:46;23.10;99.90
49829;DHT22;35723;51.194;5.112;2023-07-29T09:27:28;23.00;99.90
49829;DHT22;35723;51.194;5.112;2023-07-29T09:29:57;23.20;99.90
49829;DHT22;35723;51.194;5.112;2023-07-29T09:32:24;23.20;99.90
49829;DHT22;35723;51.194;5.112;2023-07-29T09:34:50;23.30;99.90
49829;DHT22;35723;51.194;5.112;2023-07-29T09:37:20;23.40;99.90
49829;DHT22;35723;51.194;5.112;2023-07-29T09:39:47;23.40;99.90
49829;DHT22;35723;51.194;5.112;2023-07-29T09:42:20;23.40;99.90
49829;DHT22;35723;51.194;5.112;2023-07-29T09:44:46;23.50;99.90
49829;DHT22;35723;51.194;5.112;2023-07-29T09:47:22;23.50;99.90
49829;DHT22;35723;51.194;5.112;2023-07-29T09:49:52;23.60;99.90
49829;DHT22;35723;51.194;5.112;2023-07-29T09:52:19;23.60;99.90
49829;DHT22;35723;51.194;5.112;2023-07-29T09:54:45;23.50;99.90
49829;DHT22;35723;51.194;5.112;2023-07-29T09:57:14;23.60;99.90
49829;DHT22;35723;51.194;5.112;2023-07-29T09:59:40;23.60;99.90
49829;DHT22;35723;51.194;5.112;2023-07-29T10:02:13;23.70;99.90
49829;DHT22;35723;51.194;5.112;2023-07-29T10:04:39;23.70;99.90
49829;DHT22;35723;51.194;5.112;2023-07-29T10:07:06;23.70;99.90
49829;DHT22;35723;51.194;5.112;2023-07-29T10:09:33;23.70;99.90
49829;DHT22;35723;51.194;5.112;2023-07-29T10:11:59;23.80;99.90
49829;DHT22;35723;51.194;5.112;2023-07-29T10:14:28;23.80;99.90
49829;DHT22;35723;51.194;5.112;2023-07-29T10:16:54;23.80;99.90
49829;DHT22;35723;51.194;5.112;2023-07-29T10:19:20;23.80;99.90
49829;DHT22;35723;51.194;5.112;2023-07-29T10:21:48;23.90;99.90
49829;DHT22;35723;51.194;5.112;2023-07-29T10:24:19;23.90;99.90
49829;DHT22;35723;51.194;5.112;2023-07-29T10:26:50;23.90;99.90
49829;DHT22;35723;51.194;5.112;2023-07-29T10:29:19;23.90;99.90
49829;DHT22;35723;51.194;5.112;2023-07-29T10:31:48;23.90;99.90
49829;DHT22;35723;51.194;5.112;2023-07-29T10:34:17;24.00;99.90
49829;DHT22;35723;51.194;5.112;2023-07-29T10:36:45;24.00;99.90
49829;DHT22;35723;51.194;5.112;2023-07-29T10:39:12;24.00;99.90
49829;DHT22;35723;51.194;5.112;2023-07-29T10:47:26;24.00;99.90
49829;DHT22;35723;51.194;5.112;2023-07-29T10:49:55;24.30;99.90
49829;DHT22;35723;51.194;5.112;2023-07-29T10:54:59;24.00;99.90
49829;DHT22;35723;51.194;5.112;2023-07-29T10:57:38;23.70;99.90
49829;DHT22;35723;51.194;5.112;2023-07-29T11:00:06;23.70;99.90
49829;DHT22;35723;51.194;5.112;2023-07-29T11:02:35;23.70;99.90
49829;DHT22;35723;51.194;5.112;2023-07-29T11:05:16;23.70;99.90
49829;DHT22;35723;51.194;5.112;2023-07-29T11:07:49;23.80;99.90
49829;DHT22;35723;51.194;5.112;2023-07-29T11:10:27;23.90;99.90
49829;DHT22;35723;51.194;5.112;2023-07-29T11:12:59;23.90;99.90
49829;DHT22;35723;51.194;5.112;2023-07-29T11:15:28;23.90;99.90
49829;DHT22;35723;51.194;5.112;2023-07-29T11:17:59;24.00;99.90
49829;DHT22;35723;51.194;5.112;2023-07-29T11:20:29;24.00;99.90
49829;DHT22;35723;51.194;5.112;2023-07-29T11:22:57;24.10;99.90
49829;DHT22;35723;51.194;5.112;2023-07-29T11:25:24;24.10;99.90
49829;DHT22;35723;51.194;5.112;2023-07-29T11:27:52;24.20;99.90
49829;DHT22;35723;51.194;5.112;2023-07-29T11:30:19;24.20;99.90
49829;DHT22;35723;51.194;5.112;2023-07-29T11:32:46;24.20;99.90
49829;DHT22;35723;51.194;5.112;2023-07-29T11:35:14;24.30;99.90
49829;DHT22;35723;51.194;5.112;2023-07-29T11:37:41;24.40;99.90
49829;DHT22;35723;51.194;5.112;2023-07-29T11:40:08;24.50;99.90
49829;DHT22;35723;51.194;5.112;2023-07-29T11:42:36;24.50;99.90
49829;DHT22;35723;51.194;5.112;2023-07-29T11:45:05;24.50;99.90
49829;DHT22;35723;51.194;5.112;2023-07-29T11:47:35;24.50;99.90
49829;DHT22;35723;51.194;5.112;2023-07-29T11:50:03;24.40;99.90
49829;DHT22;35723;51.194;5.112;2023-07-29T11:52:31;24.40;99.90
49829;DHT22;35723;51.194;5.112;2023-07-29T11:54:57;24.40;99.90
49829;DHT22;35723;51.194;5.112;2023-07-29T11:57:23;24.30;99.90
49829;DHT22;35723;51.194;5.112;2023-07-29T11:59:49;24.10;99.90
49829;DHT22;35723;51.194;5.112;2023-07-29T12:02:20;23.80;99.90
49829;DHT22;35723;51.194;5.112;2023-07-29T12:04:47;23.60;99.90
49829;DHT22;35723;51.194;5.112;2023-07-29T12:07:14;23.40;99.90
49829;DHT22;35723;51.194;5.112;2023-07-29T12:09:41;23.20;99.90
49829;DHT22;35723;51.194;5.112;2023-07-29T12:12:07;22.90;99.90
49829;DHT22;35723;51.194;5.112;2023-07-29T12:14:34;22.90;99.90
49829;DHT22;35723;51.194;5.112;2023-07-29T12:17:01;22.70;99.90
49829;DHT22;35723;51.194;5.112;2023-07-29T12:19:38;22.60;99.90
49829;DHT22;35723;51.194;5.112;2023-07-29T12:22:09;22.40;99.90
49829;DHT22;35723;51.194;5.112;2023-07-29T12:24:40;22.20;99.90
49829;DHT22;35723;51.194;5.112;2023-07-29T12:27:10;22.10;99.90
49829;DHT22;35723;51.194;5.112;2023-07-29T12:29:40;22.10;99.90
49829;DHT22;35723;51.194;5.112;2023-07-29T12:32:07;22.20;99.90
49829;DHT22;35723;51.194;5.112;2023-07-29T12:34:33;22.20;99.90
49829;DHT22;35723;51.194;5.112;2023-07-29T12:37:03;22.30;99.90
49829;DHT22;35723;51.194;5.112;2023-07-29T12:39:31;22.40;99.90
49829;DHT22;35723;51.194;5.112;2023-07-29T12:41:58;22.60;99.90
49829;DHT22;35723;51.194;5.112;2023-07-29T12:44:32;22.70;99.90
49829;DHT22;35723;51.194;5.112;2023-07-29T12:46:59;22.80;99.90
49829;DHT22;35723;51.194;5.112;2023-07-29T12:49:24;22.80;99.90
49829;DHT22;35723;51.194;5.112;2023-07-29T12:51:50;22.90;99.90
49829;DHT22;35723;51.194;5.112;2023-07-29T12:54:16;23.00;99.90
49829;DHT22;35723;51.194;5.112;2023-07-29T12:56:41;23.10;99.90
49829;DHT22;35723;51.194;5.112;2023-07-29T12:59:07;23.10;99.90
49829;DHT22;35723;51.194;5.112;2023-07-29T13:01:32;23.20;99.90
49829;DHT22;35723;51.194;5.112;2023-07-29T13:03:58;23.30;99.90
49829;DHT22;35723;51.194;5.112;2023-07-29T13:06:24;23.40;99.90
49829;DHT22;35723;51.194;5.112;2023-07-29T13:08:49;23.50;99.90
49829;DHT22;35723;51.194;5.112;2023-07-29T13:11:16;23.60;99.90
49829;DHT22;35723;51.194;5.112;2023-07-29T13:13:42;23.60;99.90
49829;DHT22;35723;51.194;5.112;2023-07-29T13:16:08;23.60;99.90
49829;DHT22;35723;51.194;5.112;2023-07-29T13:18:34;23.50;99.90
49829;DHT22;35723;51.194;5.112;2023-07-29T13:21:00;23.60;99.90
49829;DHT22;35723;51.194;5.112;2023-07-29T13:23:26;23.60;99.90
49829;DHT22;35723;51.194;5.112;2023-07-29T13:25:52;23.50;99.90
49829;DHT22;35723;51.194;5.112;2023-07-29T13:28:18;23.50;99.90
49829;DHT22;35723;51.194;5.112;2023-07-29T13:30:44;23.50;99.90
49829;DHT22;35723;51.194;5.112;2023-07-29T13:33:10;23.50;99.90
49829;DHT22;35723;51.194;5.112;2023-07-29T13:35:36;23.60;99.90
49829;DHT22;35723;51.194;5.112;2023-07-29T13:38:02;23.70;99.90
49829;DHT22;35723;51.194;5.112;2023-07-29T13:40:28;23.80;99.90
49829;DHT22;35723;51.194;5.112;2023-07-29T13:42:54;23.70;99.90
49829;DHT22;35723;51.194;5.112;2023-07-29T13:45:20;23.80;99.90
49829;DHT22;35723;51.194;5.112;2023-07-29T13:47:45;23.90;99.90
49829;DHT22;35723;51.194;5.112;2023-07-29T13:50:11;23.90;99.90
49829;DHT22;35723;51.194;5.112;2023-07-29T13:52:37;24.00;99.90
49829;DHT22;35723;51.194;5.112;2023-07-29T13:55:06;24.00;99.90
49829;DHT22;35723;51.194;5.112;2023-07-29T13:57:32;24.10;99.90
49829;DHT22;35723;51.194;5.112;2023-07-29T13:59:58;24.10;99.90
49829;DHT22;35723;51.194;5.112;2023-07-29T14:02:24;24.20;99.90
49829;DHT22;35723;51.194;5.112;2023-07-29T14:04:51;24.30;99.90
49829;DHT22;35723;51.194;5.112;2023-07-29T14:07:17;24.30;99.90
49829;DHT22;35723;51.194;5.112;2023-07-29T14:09:43;24.30;99.90
49829;DHT22;35723;51.194;5.112;2023-07-29T14:12:09;24.30;99.90
49829;DHT22;35723;51.194;5.112;2023-07-29T14:14:40;24.40;99.90
49829;DHT22;35723;51.194;5.112;2023-07-29T14:17:06;24.40;99.90
49829;DHT22;35723;51.194;5.112;2023-07-29T14:19:32;24.50;99.90
49829;DHT22;35723;51.194;5.112;2023-07-29T14:21:58;24.50;99.90
49829;DHT22;35723;51.194;5.112;2023-07-29T14:24:23;24.60;99.90
49829;DHT22;35723;51.194;5.112;2023-07-29T14:26:49;24.50;99.90
49829;DHT22;35723;51.194;5.112;2023-07-29T14:29:15;24.60;99.90
49829;DHT22;35723;51.194;5.112;2023-07-29T14:31:40;24.60;99.90
49829;DHT22;35723;51.194;5.112;2023-07-29T14:34:06;24.70;99.90
49829;DHT22;35723;51.194;5.112;2023-07-29T14:36:32;24.70;99.90
49829;DHT22;35723;51.194;5.112;2023-07-29T14:38:57;24.70;99.90
49829;DHT22;35723;51.194;5.112;2023-07-29T14:41:23;24.60;99.90
49829;DHT22;35723;51.194;5.112;2023-07-29T14:43:49;24.70;99.90
49829;DHT22;35723;51.194;5.112;2023-07-29T14:46:14;24.70;99.90
49829;DHT22;35723;51.194;5.112;2023-07-29T14:48:40;24.70;99.90
49829;DHT22;35723;51.194;5.112;2023-07-29T14:51:06;24.60;99.90
49829;DHT22;35723;51.194;5.112;2023-07-29T14:53:31;24.50;99.90
49829;DHT22;35723;51.194;5.112;2023-07-29T14:55:57;24.60;99.90
49829;DHT22;35723;51.194;5.112;2023-07-29T14:58:23;24.60;99.90
49829;DHT22;35723;51.194;5.112;2023-07-29T15:00:51;24.60;99.90
49829;DHT22;35723;51.194;5.112;2023-07-29T15:03:17;24.60;99.90
49829;DHT22;35723;51.194;5.112;2023-07-29T15:05:43;24.70;99.90
49829;DHT22;35723;51.194;5.112;2023-07-29T15:08:08;24.70;99.90
49829;DHT22;35723;51.194;5.112;2023-07-29T15:10:34;24.70;99.90
49829;DHT22;35723;51.194;5.112;2023-07-29T15:13:00;24.70;99.90
49829;DHT22;35723;51.194;5.112;2023-07-29T15:15:25;24.70;99.90
49829;DHT22;35723;51.194;5.112;2023-07-29T15:17:51;24.60;99.90
49829;DHT22;35723;51.194;5.112;2023-07-29T15:20:16;24.50;99.90
49829;DHT22;35723;51.194;5.112;2023-07-29T15:22:42;24.60;99.90
49829;DHT22;35723;51.194;5.112;2023-07-29T15:25:09;24.60;99.90
49829;DHT22;35723;51.194;5.112;2023-07-29T15:27:35;24.50;99.90
49829;DHT22;35723;51.194;5.112;2023-07-29T15:30:01;24.50;99.90
49829;DHT22;35723;51.194;5.112;2023-07-29T15:32:26;24.40;99.90
49829;DHT22;35723;51.194;5.112;2023-07-29T15:34:53;24.40;99.90
49829;DHT22;35723;51.194;5.112;2023-07-29T15:37:19;24.30;99.90
49829;DHT22;35723;51.194;5.112;2023-07-29T15:39:44;24.30;99.90
49829;DHT22;35723;51.194;5.112;2023-07-29T15:42:10;24.20;99.90
49829;DHT22;35723;51.194;5.112;2023-07-29T15:44:35;24.10;99.90